createdAt,value
2023-09-18T00:01:37.460Z,14.16
2023-09-18T00:04:06.340Z,14.18
2023-09-18T00:06:35.451Z,14.21
2023-09-18T00:09:03.836Z,14.22
2023-09-18T00:11:32.208Z,14.24
2023-09-18T00:14:02.039Z,14.28
2023-09-18T00:16:34.198Z,14.33
2023-09-18T00:19:07.887Z,14.36
2023-09-18T00:21:36.494Z,14.37
2023-09-18T00:24:05.341Z,14.36
2023-09-18T00:26:33.741Z,14.36
2023-09-18T00:29:03.605Z,14.35
2023-09-18T00:31:32.014Z,14.35
2023-09-18T00:34:00.425Z,14.40
2023-09-18T00:36:28.769Z,14.41
2023-09-18T00:38:57.079Z,14.41
2023-09-18T00:41:25.664Z,14.41
2023-09-18T00:43:54.033Z,14.42
2023-09-18T00:46:24.354Z,14.40
2023-09-18T00:48:53.483Z,14.43
2023-09-18T00:51:22.228Z,14.46
2023-09-18T00:53:51.317Z,14.48
2023-09-18T00:56:23.811Z,14.50
2023-09-18T00:58:53.306Z,14.52
2023-09-18T01:01:24.410Z,14.52
2023-09-18T01:03:54.958Z,14.51
2023-09-18T01:06:23.450Z,14.50
2023-09-18T01:08:54.770Z,14.49
2023-09-18T01:11:33.106Z,14.48
2023-09-18T01:14:23.030Z,14.45
2023-09-18T01:16:57.816Z,14.44
2023-09-18T01:19:40.034Z,14.44
2023-09-18T01:22:09.180Z,14.40
2023-09-18T01:24:40.348Z,14.35
2023-09-18T01:27:11.261Z,14.13
2023-09-18T01:29:39.596Z,13.90
2023-09-18T01:32:08.126Z,13.76
2023-09-18T01:34:40.833Z,13.69
2023-09-18T01:37:11.500Z,13.62
2023-09-18T01:39:42.009Z,13.56
2023-09-18T01:42:11.964Z,13.54
2023-09-18T01:44:40.446Z,13.46
2023-09-18T01:47:10.920Z,13.32
2023-09-18T01:49:40.687Z,13.22
2023-09-18T01:52:10.594Z,13.09
2023-09-18T01:54:40.731Z,13.00
2023-09-18T01:57:09.622Z,12.92
2023-09-18T01:59:38.154Z,12.86
2023-09-18T02:02:10.915Z,12.83
2023-09-18T02:05:06.245Z,12.81
2023-09-18T02:07:33.000Z,12.81
2023-09-18T02:10:02.759Z,12.81
2023-09-18T02:12:31.254Z,12.80
2023-09-18T02:15:07.094Z,12.76
2023-09-18T02:17:35.967Z,12.76
2023-09-18T02:20:12.947Z,12.77
2023-09-18T02:22:42.124Z,12.78
2023-09-18T02:25:12.088Z,12.79
2023-09-18T02:27:40.628Z,12.77
2023-09-18T02:30:11.084Z,12.76
2023-09-18T02:32:39.622Z,12.69
2023-09-18T02:35:10.044Z,12.65
2023-09-18T02:37:38.784Z,12.62
2023-09-18T02:40:10.130Z,12.62
2023-09-18T02:42:40.001Z,12.64
2023-09-18T02:45:09.572Z,12.64
2023-09-18T02:47:39.089Z,12.64
2023-09-18T02:50:08.388Z,12.63
2023-09-18T02:52:36.759Z,12.56
2023-09-18T02:55:06.189Z,12.53
2023-09-18T02:57:34.745Z,12.51
2023-09-18T03:00:05.760Z,12.45
2023-09-18T03:02:35.378Z,12.43
2023-09-18T03:05:04.255Z,12.43
2023-09-18T03:07:33.037Z,12.37
2023-09-18T03:10:01.355Z,12.29
2023-09-18T03:12:30.048Z,12.25
2023-09-18T03:14:58.477Z,12.24
2023-09-18T03:17:28.750Z,12.21
2023-09-18T03:19:57.121Z,12.19
2023-09-18T03:22:25.422Z,12.13
2023-09-18T03:24:55.034Z,12.06
2023-09-18T03:27:29.726Z,12.02
2023-09-18T03:29:59.058Z,12.00
2023-09-18T03:32:29.009Z,12.02
2023-09-18T03:34:57.446Z,12.02
2023-09-18T03:37:26.126Z,12.02
2023-09-18T03:39:54.704Z,12.03
2023-09-18T03:42:23.356Z,12.02
2023-09-18T03:44:51.797Z,12.02
2023-09-18T03:47:20.093Z,11.99
2023-09-18T03:49:49.810Z,11.97
2023-09-18T03:52:18.118Z,11.98
2023-09-18T03:54:46.450Z,11.98
2023-09-18T03:57:14.997Z,11.94
2023-09-18T03:59:43.455Z,11.92
2023-09-18T04:02:11.913Z,11.90
2023-09-18T04:04:40.322Z,11.90
2023-09-18T04:07:12.595Z,11.86
2023-09-18T04:09:41.118Z,11.87
2023-09-18T04:12:09.933Z,11.85
2023-09-18T04:14:38.450Z,11.86
2023-09-18T04:17:07.222Z,11.88
2023-09-18T04:19:35.794Z,11.85
2023-09-18T04:22:04.291Z,11.81
2023-09-18T04:24:34.055Z,11.80
2023-09-18T04:27:02.571Z,11.81
2023-09-18T04:29:31.520Z,11.80
2023-09-18T04:32:00.421Z,11.81
2023-09-18T04:34:29.957Z,11.81
2023-09-18T04:36:58.523Z,11.83
2023-09-18T04:39:26.897Z,11.82
2023-09-18T04:41:56.844Z,11.80
2023-09-18T04:44:25.377Z,11.80
2023-09-18T04:46:54.724Z,11.81
2023-09-18T04:49:24.951Z,11.79
2023-09-18T04:51:53.896Z,11.72
2023-09-18T04:54:22.547Z,11.64
2023-09-18T04:56:50.956Z,11.61
2023-09-18T04:59:20.696Z,11.65
2023-09-18T05:01:49.271Z,11.66
2023-09-18T05:04:18.248Z,11.82
2023-09-18T05:06:46.643Z,11.87
2023-09-18T05:09:15.955Z,11.84
2023-09-18T05:11:44.463Z,11.83
2023-09-18T05:14:13.896Z,11.91
2023-09-18T05:16:43.753Z,11.94
2023-09-18T05:19:12.447Z,11.97
2023-09-18T05:21:40.765Z,12.00
2023-09-18T05:24:09.488Z,12.02
2023-09-18T05:26:37.901Z,12.04
2023-09-18T05:29:06.484Z,12.03
2023-09-18T05:31:34.909Z,12.01
2023-09-18T05:34:04.668Z,11.99
2023-09-18T05:36:33.111Z,11.96
2023-09-18T05:39:01.437Z,11.97
2023-09-18T05:41:30.296Z,11.98
2023-09-18T05:43:58.869Z,11.98
2023-09-18T05:46:27.292Z,12.02
2023-09-18T05:48:58.171Z,12.06
2023-09-18T05:51:28.471Z,12.07
2023-09-18T05:53:56.849Z,12.04
2023-09-18T05:56:25.789Z,12.03
2023-09-18T05:58:54.491Z,12.03
2023-09-18T06:01:23.039Z,12.01
2023-09-18T06:03:51.488Z,12.05
2023-09-18T06:06:19.989Z,12.06
2023-09-18T06:08:49.805Z,12.05
2023-09-18T06:11:18.834Z,12.05
2023-09-18T06:13:47.489Z,12.07
2023-09-18T06:16:15.912Z,12.08
2023-09-18T06:18:45.407Z,12.07
2023-09-18T06:21:13.728Z,12.04
2023-09-18T06:23:42.264Z,12.03
2023-09-18T06:26:12.069Z,12.05
2023-09-18T06:28:40.467Z,12.05
2023-09-18T06:31:09.229Z,12.04
2023-09-18T06:33:37.744Z,12.03
2023-09-18T06:36:06.744Z,12.00
2023-09-18T06:38:35.177Z,11.97
2023-09-18T06:41:03.548Z,11.94
2023-09-18T06:43:33.370Z,11.91
2023-09-18T06:46:01.849Z,11.93
2023-09-18T06:48:33.596Z,11.89
2023-09-18T06:51:02.299Z,11.84
2023-09-18T06:53:30.808Z,11.80
2023-09-18T06:55:59.254Z,11.73
2023-09-18T06:58:27.610Z,11.69
2023-09-18T07:00:58.794Z,11.65
2023-09-18T07:03:27.341Z,11.65
2023-09-18T07:05:57.588Z,11.63
2023-09-18T07:08:25.950Z,11.63
2023-09-18T07:10:54.546Z,11.64
2023-09-18T07:13:22.834Z,11.66
2023-09-18T07:15:51.174Z,11.69
2023-09-18T07:18:20.873Z,11.69
2023-09-18T07:20:49.345Z,11.69
2023-09-18T07:23:17.938Z,11.67
2023-09-18T07:25:46.478Z,11.69
2023-09-18T07:28:18.597Z,11.71
2023-09-18T07:30:47.080Z,11.72
2023-09-18T07:33:18.490Z,11.73
2023-09-18T07:35:50.002Z,11.72
2023-09-18T07:38:20.334Z,11.77
2023-09-18T07:40:49.033Z,11.79
2023-09-18T07:43:17.566Z,11.79
2023-09-18T07:45:45.964Z,11.80
2023-09-18T07:48:14.413Z,11.82
2023-09-18T07:50:46.545Z,11.83
2023-09-18T07:53:16.400Z,11.85
2023-09-18T07:55:44.869Z,11.88
2023-09-18T07:58:15.057Z,11.91
2023-09-18T08:00:43.441Z,11.93
2023-09-18T08:03:12.235Z,11.96
2023-09-18T08:05:42.098Z,12.00
2023-09-18T08:08:10.629Z,12.02
2023-09-18T08:10:41.632Z,12.06
2023-09-18T08:13:10.228Z,12.10
2023-09-18T08:15:39.110Z,12.14
2023-09-18T08:18:07.998Z,12.18
2023-09-18T08:20:38.390Z,12.23
2023-09-18T08:23:07.044Z,12.32
2023-09-18T08:25:35.368Z,12.41
2023-09-18T08:28:08.365Z,12.43
2023-09-18T08:30:40.341Z,12.52
2023-09-18T08:33:09.116Z,12.58
2023-09-18T08:35:37.413Z,12.70
2023-09-18T08:38:06.159Z,12.79
2023-09-18T08:40:36.046Z,12.87
2023-09-18T08:43:06.784Z,12.99
2023-09-18T08:45:40.560Z,12.98
2023-09-18T08:48:09.939Z,12.95
2023-09-18T08:50:38.941Z,12.92
2023-09-18T08:53:07.647Z,12.91
2023-09-18T08:55:36.564Z,12.93
2023-09-18T08:58:08.436Z,12.96
2023-09-18T09:00:39.569Z,13.00
2023-09-18T09:03:08.508Z,13.00
2023-09-18T09:05:36.969Z,13.09
2023-09-18T09:08:05.849Z,13.20
2023-09-18T09:10:34.287Z,13.17
2023-09-18T09:13:03.872Z,13.18
2023-09-18T09:15:47.395Z,13.33
2023-09-18T09:18:17.274Z,13.43
2023-09-18T09:20:56.872Z,13.48
2023-09-18T09:23:25.280Z,13.51
2023-09-18T09:25:53.721Z,13.48
2023-09-18T09:28:33.089Z,13.53
2023-09-18T09:31:06.957Z,13.53
2023-09-18T09:33:35.645Z,13.53
2023-09-18T09:36:07.411Z,13.47
2023-09-18T09:38:38.195Z,13.45
2023-09-18T09:41:08.235Z,13.42
2023-09-18T09:43:36.664Z,13.47
2023-09-18T09:46:06.704Z,13.43
2023-09-18T09:48:35.208Z,13.47
2023-09-18T09:51:04.390Z,13.44
2023-09-18T09:53:46.206Z,13.41
2023-09-18T09:56:14.908Z,13.40
2023-09-18T09:58:45.374Z,13.40
2023-09-18T10:01:19.193Z,13.41
2023-09-18T10:03:48.572Z,13.44
2023-09-18T10:06:18.367Z,13.44
2023-09-18T10:08:47.043Z,13.43
2023-09-18T10:11:18.911Z,13.41
2023-09-18T10:13:50.656Z,13.44
2023-09-18T10:16:22.075Z,13.38
2023-09-18T10:19:05.326Z,13.40
2023-09-18T10:21:41.227Z,13.44
2023-09-18T10:24:20.437Z,13.47
2023-09-18T10:26:57.750Z,13.51
2023-09-18T10:29:27.448Z,13.53
2023-09-18T10:31:57.606Z,13.54
2023-09-18T10:34:27.325Z,13.55
2023-09-18T10:36:57.147Z,13.57
2023-09-18T10:39:28.604Z,13.59
2023-09-18T10:42:04.874Z,13.60
2023-09-18T10:44:33.794Z,13.64
2023-09-18T10:47:07.473Z,13.68
2023-09-18T10:49:37.170Z,13.74
2023-09-18T10:52:06.320Z,13.74
2023-09-18T10:54:39.371Z,13.73
2023-09-18T10:57:07.917Z,13.77
2023-09-18T10:59:36.449Z,13.82
2023-09-18T11:02:07.438Z,13.86
2023-09-18T11:04:37.797Z,13.88
2023-09-18T11:07:07.567Z,13.86
2023-09-18T11:09:44.580Z,13.84
2023-09-18T11:12:14.599Z,13.85
2023-09-18T11:14:52.230Z,13.90
2023-09-18T11:17:41.734Z,13.93
2023-09-18T11:20:13.740Z,13.89
2023-09-18T11:22:48.217Z,13.95
2023-09-18T11:25:42.896Z,14.10
2023-09-18T11:28:17.617Z,14.27
2023-09-18T11:30:59.860Z,14.45
2023-09-18T11:33:37.370Z,14.57
2023-09-18T11:36:13.439Z,14.62
2023-09-18T11:39:04.906Z,14.62
2023-09-18T11:41:36.761Z,14.68
2023-09-18T11:44:42.551Z,14.82
2023-09-18T11:47:19.574Z,14.68
2023-09-18T11:49:56.275Z,14.48
2023-09-18T11:52:26.619Z,14.30
2023-09-18T11:54:56.507Z,14.14
2023-09-18T11:57:25.295Z,14.07
2023-09-18T11:59:53.961Z,13.97
2023-09-18T12:02:36.953Z,13.83
2023-09-18T12:05:14.066Z,13.72
2023-09-18T12:07:46.262Z,13.51
2023-09-18T12:10:18.409Z,13.32
2023-09-18T12:12:47.524Z,13.20
2023-09-18T12:15:16.951Z,13.09
2023-09-18T12:17:47.353Z,12.96
2023-09-18T12:20:21.259Z,12.89
2023-09-18T12:22:51.585Z,12.74
2023-09-18T12:25:25.069Z,12.73
2023-09-18T12:27:55.032Z,12.78
2023-09-18T12:30:24.712Z,12.95
2023-09-18T12:32:54.497Z,13.07
2023-09-18T12:35:30.535Z,13.17
2023-09-18T12:38:00.170Z,13.23
2023-09-18T12:40:30.049Z,13.31
2023-09-18T12:42:59.337Z,13.46
2023-09-18T12:45:28.839Z,13.75
2023-09-18T12:47:59.213Z,14.01
2023-09-18T12:50:29.525Z,14.20
2023-09-18T12:53:10.006Z,14.22
2023-09-18T12:55:39.549Z,14.26
2023-09-18T12:58:09.910Z,14.25
2023-09-18T13:00:38.838Z,14.29
2023-09-18T13:03:07.626Z,14.32
2023-09-18T13:05:37.576Z,14.33
2023-09-18T13:08:08.000Z,14.47
2023-09-18T13:10:45.233Z,14.70
2023-09-18T13:13:20.042Z,14.93
2023-09-18T13:15:50.405Z,14.80
2023-09-18T13:18:20.613Z,14.74
2023-09-18T13:20:50.719Z,14.65
2023-09-18T13:23:21.938Z,14.53
2023-09-18T13:25:50.739Z,14.28
2023-09-18T13:28:22.142Z,14.27
2023-09-18T13:30:50.801Z,14.36
2023-09-18T13:33:21.149Z,14.53
2023-09-18T13:35:51.732Z,14.37
2023-09-18T13:38:20.430Z,14.17
2023-09-18T13:40:50.168Z,13.99
2023-09-18T13:43:19.985Z,13.99
2023-09-18T13:45:48.403Z,14.15
2023-09-18T13:48:17.791Z,14.37
2023-09-18T13:50:47.140Z,14.57
2023-09-18T13:53:17.176Z,14.61
2023-09-18T13:55:45.546Z,14.65
2023-09-18T13:58:13.866Z,14.58
2023-09-18T14:00:45.145Z,13.97
2023-09-18T14:03:16.746Z,13.47
2023-09-18T14:05:45.264Z,13.27
2023-09-18T14:08:13.710Z,13.17
2023-09-18T14:10:44.207Z,13.08
2023-09-18T14:13:12.690Z,12.92
2023-09-18T14:15:41.497Z,12.83
2023-09-18T14:18:10.359Z,12.74
2023-09-18T14:20:38.755Z,12.83
2023-09-18T14:23:07.638Z,12.89
2023-09-18T14:25:36.163Z,12.92
2023-09-18T14:28:06.458Z,13.06
2023-09-18T14:30:35.643Z,13.05
2023-09-18T14:33:04.341Z,12.99
2023-09-18T14:35:33.141Z,13.01
2023-09-18T14:38:01.483Z,12.99
2023-09-18T14:40:29.826Z,12.97
2023-09-18T14:42:58.214Z,13.04
2023-09-18T14:45:28.127Z,13.10
2023-09-18T14:47:56.624Z,13.34
2023-09-18T14:50:25.000Z,13.54
2023-09-18T14:52:53.845Z,13.63
2023-09-18T14:55:22.238Z,13.62
2023-09-18T14:57:54.929Z,13.54
2023-09-18T15:00:23.907Z,13.51
2023-09-18T15:02:53.840Z,13.44
2023-09-18T15:05:22.334Z,13.34
2023-09-18T15:07:50.663Z,13.33
2023-09-18T15:10:19.351Z,13.37
2023-09-18T15:12:47.848Z,13.37
2023-09-18T15:15:16.351Z,13.46
2023-09-18T15:17:44.761Z,13.36
2023-09-18T15:20:14.659Z,13.30
2023-09-18T15:22:42.956Z,13.23
2023-09-18T15:25:11.956Z,13.18
2023-09-18T15:27:40.449Z,13.18
2023-09-18T15:30:09.914Z,13.15
2023-09-18T15:32:50.709Z,13.13
2023-09-18T15:35:20.900Z,13.17
2023-09-18T15:37:49.289Z,13.22
2023-09-18T15:40:20.268Z,13.12
2023-09-18T15:42:49.006Z,12.96
2023-09-18T15:45:17.462Z,12.87
2023-09-18T15:47:47.050Z,12.83
2023-09-18T15:50:16.966Z,12.82
2023-09-18T15:52:47.367Z,12.81
2023-09-18T15:55:16.183Z,12.75
2023-09-18T15:57:45.574Z,12.77
2023-09-18T16:00:15.125Z,12.80
2023-09-18T16:02:44.908Z,12.82
2023-09-18T16:05:14.082Z,12.73
2023-09-18T16:07:43.185Z,12.65
2023-09-18T16:10:13.507Z,12.57
2023-09-18T16:12:42.036Z,12.52
2023-09-18T16:15:11.200Z,12.47
2023-09-18T16:17:39.704Z,12.48
2023-09-18T16:20:09.686Z,12.42
2023-09-18T16:22:38.477Z,12.35
2023-09-18T16:25:07.549Z,12.33
2023-09-18T16:27:37.404Z,12.28
2023-09-18T16:30:07.376Z,12.25
2023-09-18T16:32:40.062Z,12.21
2023-09-18T16:35:09.739Z,12.21
2023-09-18T16:37:40.195Z,12.25
2023-09-18T16:40:12.555Z,12.23
2023-09-18T16:42:42.447Z,12.22
2023-09-18T16:45:11.620Z,12.27
2023-09-18T16:47:40.123Z,12.28
2023-09-18T16:50:09.316Z,12.30
2023-09-18T16:52:40.164Z,12.29
2023-09-18T16:55:10.026Z,12.20
2023-09-18T16:57:38.434Z,12.22
2023-09-18T17:00:09.841Z,12.16
2023-09-18T17:02:38.378Z,12.08
2023-09-18T17:05:07.785Z,11.95
2023-09-18T17:07:36.287Z,11.83
2023-09-18T17:10:05.875Z,11.74
2023-09-18T17:12:38.543Z,11.69
2023-09-18T17:15:10.468Z,11.65
2023-09-18T17:17:39.651Z,11.59
2023-09-18T17:20:09.524Z,11.57
2023-09-18T17:22:38.828Z,11.58
2023-09-18T17:25:08.882Z,11.58
2023-09-18T17:27:37.330Z,11.61
2023-09-18T17:30:08.260Z,11.58
2023-09-18T17:32:38.527Z,11.53
2023-09-18T17:35:08.350Z,11.42
2023-09-18T17:37:36.764Z,11.33
2023-09-18T17:40:06.110Z,11.23
2023-09-18T17:42:34.605Z,11.14
2023-09-18T17:45:03.066Z,11.10
2023-09-18T17:47:31.753Z,11.07
2023-09-18T17:50:01.812Z,11.03
2023-09-18T17:52:30.175Z,10.98
2023-09-18T17:54:59.237Z,10.89
2023-09-18T17:57:27.640Z,10.83
2023-09-18T17:59:56.306Z,10.80
2023-09-18T18:02:25.128Z,10.77
2023-09-18T18:04:54.275Z,10.79
2023-09-18T18:07:24.526Z,10.84
2023-09-18T18:09:53.084Z,10.87
2023-09-18T18:12:21.468Z,10.92
2023-09-18T18:14:51.262Z,10.93
2023-09-18T18:17:19.924Z,10.80
2023-09-18T18:19:48.238Z,10.49
2023-09-18T18:22:16.698Z,10.14
2023-09-18T18:24:46.418Z,9.88
2023-09-18T18:27:14.838Z,9.63
2023-09-18T18:29:43.249Z,9.47
2023-09-18T18:32:11.833Z,9.36
2023-09-18T18:34:40.378Z,9.24
2023-09-18T18:37:08.718Z,9.09
2023-09-18T18:39:38.276Z,9.01
2023-09-18T18:42:09.637Z,8.94
2023-09-18T18:44:38.167Z,8.88
2023-09-18T18:47:07.040Z,8.87
2023-09-18T18:49:35.480Z,8.80
2023-09-18T18:52:04.115Z,8.74
2023-09-18T18:54:33.082Z,8.69
2023-09-18T18:57:01.486Z,8.59
2023-09-18T18:59:31.405Z,8.50
2023-09-18T19:01:59.950Z,8.43
2023-09-18T19:04:28.392Z,8.44
2023-09-18T19:06:56.796Z,8.42
2023-09-18T19:09:25.361Z,8.41
2023-09-18T19:11:53.888Z,8.39
2023-09-18T19:14:22.355Z,8.38
2023-09-18T19:16:52.249Z,8.34
2023-09-18T19:19:20.670Z,8.36
2023-09-18T19:21:49.829Z,8.39
2023-09-18T19:24:18.328Z,8.42
2023-09-18T19:26:46.920Z,8.43
2023-09-18T19:29:17.396Z,8.42
2023-09-18T19:31:48.014Z,8.45
2023-09-18T19:34:17.974Z,8.54
2023-09-18T19:37:02.522Z,8.59
2023-09-18T19:39:31.370Z,8.63
2023-09-18T19:42:03.991Z,8.72
2023-09-18T19:44:32.563Z,8.74
2023-09-18T19:47:02.448Z,8.74
2023-09-18T19:49:33.324Z,8.76
2023-09-18T19:52:01.686Z,8.79
2023-09-18T19:54:31.838Z,8.83
2023-09-18T19:57:00.733Z,8.86
2023-09-18T19:59:29.119Z,8.90
2023-09-18T20:01:57.565Z,8.99
2023-09-18T20:04:26.014Z,9.06
2023-09-18T20:06:56.217Z,9.12
2023-09-18T20:09:25.196Z,9.17
2023-09-18T20:11:53.576Z,9.20
2023-09-18T20:14:31.233Z,9.25
2023-09-18T20:17:00.930Z,9.28
2023-09-18T20:19:29.296Z,9.27
2023-09-18T20:21:59.348Z,9.30
2023-09-18T20:24:27.771Z,9.23
2023-09-18T20:26:56.341Z,9.18
2023-09-18T20:29:24.959Z,9.16
2023-09-18T20:31:54.008Z,9.14
2023-09-18T20:34:23.748Z,9.13
2023-09-18T20:36:52.459Z,9.11
2023-09-18T20:39:22.336Z,9.10
2023-09-18T20:41:51.053Z,9.07
2023-09-18T20:44:19.864Z,9.08
2023-09-18T20:46:48.290Z,9.08
2023-09-18T20:49:16.641Z,9.10
2023-09-18T20:51:45.179Z,9.15
2023-09-18T20:54:14.386Z,9.18
2023-09-18T20:56:44.320Z,9.20
2023-09-18T20:59:13.061Z,9.19
2023-09-18T21:01:44.332Z,9.19
2023-09-18T21:04:12.958Z,9.24
2023-09-18T21:06:41.412Z,9.27
2023-09-18T21:09:12.829Z,9.31
2023-09-18T21:11:43.211Z,9.34
2023-09-18T21:14:13.098Z,9.36
2023-09-18T21:16:41.443Z,9.38
2023-09-18T21:19:09.820Z,9.43
2023-09-18T21:21:38.133Z,9.48
2023-09-18T21:24:07.239Z,9.49
2023-09-18T21:26:35.635Z,9.52
2023-09-18T21:29:03.997Z,9.57
2023-09-18T21:31:34.018Z,9.56
2023-09-18T21:34:02.528Z,9.53
2023-09-18T21:36:30.851Z,9.49
2023-09-18T21:38:59.242Z,9.52
2023-09-18T21:41:27.667Z,9.57
2023-09-18T21:43:56.033Z,9.58
2023-09-18T21:46:24.434Z,9.58
2023-09-18T21:48:54.591Z,9.56
2023-09-18T21:51:23.175Z,9.55
2023-09-18T21:53:51.513Z,9.56
2023-09-18T21:56:20.007Z,9.54
2023-09-18T21:58:48.388Z,9.55
2023-09-18T22:01:17.026Z,9.54
2023-09-18T22:03:47.592Z,9.59
2023-09-18T22:06:17.436Z,9.57
2023-09-18T22:08:45.906Z,9.55
2023-09-18T22:11:14.494Z,9.49
2023-09-18T22:13:43.095Z,9.48
2023-09-18T22:16:11.483Z,9.48
2023-09-18T22:18:40.478Z,9.50
2023-09-18T22:21:10.299Z,9.51
2023-09-18T22:23:40.237Z,9.51
2023-09-18T22:26:09.353Z,9.47
2023-09-18T22:28:40.869Z,9.51
2023-09-18T22:31:14.763Z,9.51
2023-09-18T22:33:43.449Z,9.49
2023-09-18T22:36:24.880Z,9.50
2023-09-18T22:39:10.866Z,9.51
2023-09-18T22:41:40.330Z,9.49
2023-09-18T22:44:46.135Z,9.44
2023-09-18T22:47:53.645Z,9.37
2023-09-18T22:50:59.024Z,9.39
2023-09-18T22:53:27.020Z,9.42
2023-09-18T22:55:56.994Z,9.44
2023-09-18T23:00:58.377Z,9.45
2023-09-18T23:03:28.400Z,9.41
2023-09-18T23:05:57.029Z,9.36
2023-09-18T23:08:25.746Z,9.34
2023-09-18T23:10:54.116Z,9.33
2023-09-18T23:13:26.136Z,9.28
2023-09-18T23:15:54.596Z,9.30
2023-09-18T23:18:24.237Z,9.29
2023-09-18T23:20:53.202Z,9.31
2023-09-18T23:23:22.243Z,9.31
2023-09-18T23:25:55.551Z,9.31
2023-09-18T23:28:25.668Z,9.27
2023-09-18T23:30:55.026Z,9.27
2023-09-18T23:33:25.393Z,9.26
2023-09-18T23:35:54.605Z,9.30
2023-09-18T23:38:24.893Z,9.29
2023-09-18T23:40:53.344Z,9.30
2023-09-18T23:43:21.976Z,9.31
2023-09-18T23:45:55.560Z,9.31
2023-09-18T23:48:24.362Z,9.28
2023-09-18T23:50:53.922Z,9.29
2023-09-18T23:53:26.231Z,9.27
2023-09-18T23:55:55.341Z,9.27
2023-09-18T23:58:23.865Z,9.28
